Rexburg, ID (83441)

10:04 PM MDT on October 31, 2014 (GMT -0600)
Rexburg-Madison County | Change Station
CLOSE
Current Station
Airport
Location: Rexburg,
Elevation: 4859 ft
Nearby Weather Stations
Active Advisory: Winter Storm Watch Active Notice: Record Report

Elev 4859 ft 43.83 °N, 111.81 °W | Updated 11 minutes ago

Partly Cloudy
Partly Cloudy
46 °F
Feels Like 46 °F
N
0
Wind Variable Wind from North

Today
High -- | Low -- °F
--% Chance of Precip.
Yesterday
High -- | Low -- °F
Precip. -- in
8:01 AM 6:18 PM
Waxing Gibbous, 62% visible
Pressure 29.83 in
Visibility 10.0 miles
Clouds Clear
Dew Point 28 °F
Humidity 50%
Rainfall 0.00 in
Snow Depth Not available.
UV 0 out of 12
Pollen 2.80 out of 12
Air Quality Not available.
Flu Activity Not available.
METAR KRXE 010353Z AUTO 00000KT 10SM CLR 08/M02 A2984 RMK AO2 SLP100 T00781022

More Conditions Fewer Conditions

Pressure 29.83 in
Visibility 10.0 miles
Clouds Clear
Dew Point 28 °F
Humidity 50%
Rainfall 0.00 in
Snow Depth Not available.
UV 0 out of 12
Pollen 2.80 out of 12
Air Quality Not available.
Flu Activity Not available.
METAR KRXE 010353Z AUTO 00000KT 10SM CLR 08/M02 A2984 RMK AO2 SLP100 T00781022

More Conditions Fewer Conditions

10-Day Weather Forecast

Almanac

Astronomy

Oct. 31, 2014 Rise Set
Actual Time
Civil Twilight
Nautical Twilight
Astronomical Twilight
Moon
Length of Visible Light
Length of Day
Tomorrow will be .
, % of the Moon is Illuminated

Today's Extremes

State Highs State Lows

Community

WunderPhotos

Upload Photos

1,766,848 photos uploaded!

WunderBlogs® & News

Nearby

Air Quality

  Air Quality AQ Index Pollutant
Not available.

Snow Depth

Station Depth Elevation

Earthquake Activity

City Distance Mag. Time & Date
Minimum magnitude displayed is 2.5.

Coastal Water Temperatures

Place Temperature

Nearby Weather Stations